Old Mastic, New York
Current Conditions -  °F | °C
As of 9:30 AM on Tuesday 27 Jan 2015 (Local Time) from KHWV Reporting Station
Haze Haze  
Wind Chill:   Ceiling: 3100
Heat Index: 24°   Visibility: 1.7mi
Dew Point: 18°   Wind: 28mph
Humidity: 77%   Direction: 350°N
Pressure: 29.59"   Gusts: 37mph
Location:  40.7682°N, 72.8409°W
Report Text: KHWV 271430Z AUTO 35024G32KT 1 3/4SM HZ FEW020 BKN031 OVC045 M04/M08 A2959 RMK AO2 PK WND 34033/1415 VIS 1 1/4V3 T10441078 PWINO FZRANO TSNO $
Loading
Personal Weather Stations






























Interactive Weather Map New forecast layout! Learn more

10-Day Weather Forecast

Advertisements
Track Severe Weather on mobile